Time;durP1;ratioP1;P1;durP2;ratioP2;P2;SDS_P1;SDS_P2;PMS_P1;PMS_P2;Temp;Humidity;BMP_temperature;BMP_pressure;BME280_temperature;BME280_humidity;BME280_pressure;Samples;Min_cycle;Max_cycle;Signal;HPM_P1;HPM_P2
2022/01/04 00:00:48;;;;;;;31.33;17.17;;;4.60;99.90;;;;;;5124242;27;20027;-74
2022/01/04 00:03:13;;;;;;;32.70;18.33;;;4.60;99.90;;;;;;5127332;27;20027;-74
2022/01/04 00:05:40;;;;;;;24.60;15.10;;;4.60;99.90;;;;;;5127432;27;20020;-74
2022/01/04 00:08:09;;;;;;;29.23;15.40;;;4.60;99.90;;;;;;5108871;27;20031;-74
2022/01/04 00:10:35;;;;;;;23.58;14.35;;;4.60;99.90;;;;;;5123357;27;20029;-74
2022/01/04 00:15:45;;;;;;;26.92;14.27;;;4.70;99.90;;;;;;5125788;27;20071;-74
2022/01/04 00:18:13;;;;;;;26.38;16.33;;;4.60;99.90;;;;;;5127364;27;20023;-74
2022/01/04 00:20:39;;;;;;;27.08;14.65;;;4.50;99.90;;;;;;5126784;27;20477;-74
2022/01/04 00:23:05;;;;;;;24.95;14.93;;;4.40;99.90;;;;;;5127392;27;20038;-74
2022/01/04 00:25:31;;;;;;;28.58;15.23;;;4.50;99.90;;;;;;5129144;27;20043;-74
2022/01/04 00:27:57;;;;;;;27.42;15.60;;;4.50;99.90;;;;;;5130690;27;20023;-74
2022/01/04 00:30:28;;;;;;;22.85;13.93;;;4.50;99.90;;;;;;5130583;27;20019;-74
2022/01/04 00:32:57;;;;;;;26.02;16.67;;;4.50;99.90;;;;;;5131467;27;20076;-74
2022/01/04 00:35:22;;;;;;;24.65;14.63;;;4.40;99.90;;;;;;5132430;27;20023;-74
2022/01/04 00:37:48;;;;;;;26.00;15.65;;;4.30;99.90;;;;;;5131808;27;20030;-74
2022/01/04 00:40:14;;;;;;;27.45;15.32;;;4.20;99.90;;;;;;5132320;27;20054;-74
2022/01/04 00:42:40;;;;;;;25.25;14.88;;;4.40;99.90;;;;;;5131744;27;20027;-74
2022/01/04 00:45:06;;;;;;;24.33;14.93;;;4.50;99.90;;;;;;5123769;27;20485;-74
2022/01/04 00:47:44;;;;;;;25.35;16.48;;;4.50;99.90;;;;;;5127901;27;20039;-74
2022/01/04 00:50:11;;;;;;;23.77;14.82;;;4.50;99.90;;;;;;5132434;27;20499;-74
2022/01/04 00:52:36;;;;;;;33.95;15.90;;;4.40;99.90;;;;;;5131180;27;20088;-74
2022/01/04 00:55:03;;;;;;;25.23;15.35;;;4.40;99.90;;;;;;5132493;27;20457;-74
2022/01/04 00:57:29;;;;;;;24.20;15.90;;;4.30;99.90;;;;;;5131596;27;20023;-74
2022/01/04 00:59:54;;;;;;;24.17;15.43;;;4.20;99.90;;;;;;5132150;27;20032;-74
2022/01/04 01:02:20;;;;;;;27.92;15.98;;;4.20;99.90;;;;;;5131277;27;20465;-74
2022/01/04 01:04:46;;;;;;;26.85;15.60;;;4.00;99.90;;;;;;5127149;27;20111;-74
2022/01/04 01:07:12;;;;;;;29.30;16.77;;;4.20;99.90;;;;;;5128025;27;20269;-74
2022/01/04 01:09:48;;;;;;;29.23;17.85;;;4.20;99.90;;;;;;5131929;27;20506;-74
2022/01/04 01:12:14;;;;;;;27.00;14.90;;;4.20;99.90;;;;;;5130903;27;20485;-74
2022/01/04 01:14:40;;;;;;;28.00;15.98;;;4.20;99.90;;;;;;5131877;27;20031;-74
2022/01/04 01:17:05;;;;;;;26.35;16.77;;;4.30;99.90;;;;;;5131270;27;20465;-74
2022/01/04 01:19:32;;;;;;;19.38;11.93;;;4.30;99.90;;;;;;5130848;27;20031;-74
2022/01/04 01:21:58;;;;;;;20.25;11.63;;;4.40;99.90;;;;;;5124453;27;20026;-74
2022/01/04 01:24:24;;;;;;;21.90;12.52;;;4.50;99.90;;;;;;5130511;27;20031;-74
2022/01/04 01:26:50;;;;;;;23.27;14.55;;;4.60;99.90;;;;;;5130305;28;20027;-74
2022/01/04 01:29:15;;;;;;;27.15;16.58;;;4.50;99.90;;;;;;5130984;28;20038;-74
2022/01/04 01:31:41;;;;;;;25.67;16.10;;;4.40;99.90;;;;;;5130771;28;20116;-74
2022/01/04 01:34:07;;;;;;;30.40;19.17;;;4.40;99.90;;;;;;5130052;28;20046;-74
2022/01/04 01:36:33;;;;;;;27.38;17.58;;;4.20;99.90;;;;;;5129953;28;20538;-74
2022/01/04 01:38:58;;;;;;;25.20;16.92;;;4.10;99.90;;;;;;5129801;27;20520;-74
2022/01/04 01:41:24;;;;;;;27.00;15.93;;;4.10;99.90;;;;;;5134235;27;20027;-74
2022/01/04 01:43:50;;;;;;;32.40;17.27;;;4.20;99.90;;;;;;5126488;27;20515;-74
2022/01/04 01:46:15;;;;;;;25.95;16.48;;;4.20;99.90;;;;;;5133104;27;20027;-74
2022/01/04 01:48:42;;;;;;;32.65;16.33;;;4.10;99.90;;;;;;5134598;27;20888;-75
2022/01/04 01:51:08;;;;;;;29.10;15.88;;;4.20;99.90;;;;;;5133851;27;20031;-74
2022/01/04 01:53:33;;;;;;;25.10;15.40;;;4.20;99.90;;;;;;5134454;27;20041;-74
2022/01/04 01:56:00;;;;;;;30.40;17.38;;;4.30;99.90;;;;;;5133884;27;20019;-74
2022/01/04 01:58:26;;;;;;;27.20;16.33;;;4.40;99.90;;;;;;5133727;27;20035;-74
2022/01/04 02:00:51;;;;;;;27.65;16.95;;;4.30;99.90;;;;;;5133339;27;20358;-74
2022/01/04 02:03:17;;;;;;;29.08;16.95;;;4.20;99.90;;;;;;5134399;27;20108;-73
2022/01/04 02:05:43;;;;;;;27.42;15.52;;;4.30;99.90;;;;;;5133373;27;20046;-73
2022/01/04 02:08:11;;;;;;;29.48;15.30;;;4.30;99.90;;;;;;5133317;27;20389;-73
2022/01/04 02:10:38;;;;;;;26.42;15.45;;;4.30;99.90;;;;;;5134419;27;20055;-73
2022/01/04 02:13:04;;;;;;;28.35;15.90;;;4.20;99.90;;;;;;5130885;27;20039;-73
2022/01/04 02:15:32;;;;;;;28.20;16.83;;;4.20;99.90;;;;;;5134104;27;20142;-73
2022/01/04 02:17:58;;;;;;;23.40;15.40;;;4.20;99.90;;;;;;5133777;27;20516;-73
2022/01/04 02:20:24;;;;;;;24.98;16.40;;;4.20;99.90;;;;;;5133013;27;20114;-73
2022/01/04 02:22:49;;;;;;;28.02;16.10;;;4.00;99.90;;;;;;5134641;27;20046;-73
2022/01/04 02:25:16;;;;;;;25.52;16.55;;;3.90;99.90;;;;;;5133978;27;20026;-73
2022/01/04 02:27:42;;;;;;;26.40;16.40;;;4.00;99.90;;;;;;5133527;27;20024;-73
2022/01/04 02:30:14;;;;;;;25.90;16.25;;;3.80;99.90;;;;;;5128656;27;20362;-73
2022/01/04 02:32:40;;;;;;;29.05;17.27;;;3.90;99.90;;;;;;5133705;27;20496;-73
2022/01/04 02:35:06;;;;;;;25.77;15.95;;;4.10;99.90;;;;;;5133932;27;20038;-73
2022/01/04 02:37:33;;;;;;;30.88;16.88;;;4.10;99.90;;;;;;5133464;27;20102;-73
2022/01/04 02:39:59;;;;;;;27.65;15.20;;;4.20;99.90;;;;;;5132995;27;20030;-73
2022/01/04 02:42:25;;;;;;;31.80;17.38;;;4.20;99.90;;;;;;5128535;27;20058;-73
2022/01/04 02:44:51;;;;;;;30.60;17.50;;;4.10;99.90;;;;;;5130392;27;20492;-73
2022/01/04 02:47:17;;;;;;;26.67;15.80;;;4.00;99.90;;;;;;5127242;27;20059;-73
2022/01/04 02:49:43;;;;;;;27.65;16.67;;;4.00;99.90;;;;;;5131450;27;20035;-73
2022/01/04 02:52:09;;;;;;;24.60;15.52;;;4.10;99.90;;;;;;5133640;27;20112;-73
2022/01/04 02:54:35;;;;;;;26.25;16.10;;;4.00;99.90;;;;;;5133101;27;20039;-73
2022/01/04 02:57:01;;;;;;;27.65;16.25;;;4.00;99.90;;;;;;5132603;27;20027;-73
2022/01/04 02:59:27;;;;;;;28.48;16.02;;;4.00;99.90;;;;;;5133669;27;20076;-73
2022/01/04 03:01:53;;;;;;;28.92;16.45;;;4.10;99.90;;;;;;5132434;27;20023;-73
2022/01/04 03:04:20;;;;;;;29.08;17.00;;;4.10;99.90;;;;;;5128041;27;20023;-73
2022/01/04 03:06:46;;;;;;;25.20;16.50;;;4.10;99.90;;;;;;5129334;27;20160;-73
2022/01/04 03:09:12;;;;;;;26.13;15.80;;;4.00;99.90;;;;;;5133135;27;20032;-73
2022/01/04 03:11:37;;;;;;;24.98;14.90;;;4.10;99.90;;;;;;5131908;27;20077;-73
2022/01/04 03:14:04;;;;;;;31.75;16.35;;;4.00;99.90;;;;;;5132090;27;20035;-73
2022/01/04 03:16:30;;;;;;;25.65;16.08;;;4.20;99.90;;;;;;5133711;27;20023;-73
2022/01/04 03:19:09;;;;;;;26.45;16.38;;;4.20;99.90;;;;;;5130956;27;20054;-73
2022/01/04 03:21:43;;;;;;;25.73;16.10;;;4.10;99.90;;;;;;5132157;27;20481;-73
2022/01/04 03:24:10;;;;;;;28.48;16.02;;;4.10;99.90;;;;;;5132508;27;20118;-73
2022/01/04 03:26:36;;;;;;;27.85;17.08;;;4.10;99.90;;;;;;5125366;27;20703;-73
2022/01/04 03:29:04;;;;;;;28.67;16.83;;;4.00;99.90;;;;;;5132020;27;20043;-73
2022/01/04 03:31:31;;;;;;;28.05;17.75;;;4.00;99.90;;;;;;5132428;27;20027;-73
2022/01/04 03:33:57;;;;;;;23.63;14.55;;;4.00;99.90;;;;;;5129259;27;20031;-73
2022/01/04 03:36:24;;;;;;;28.20;16.05;;;4.00;99.90;;;;;;5133411;27;20038;-73
2022/01/04 03:38:52;;;;;;;26.98;17.15;;;4.00;99.90;;;;;;5130333;27;20512;-73
2022/01/04 03:41:19;;;;;;;27.58;16.02;;;3.90;99.90;;;;;;5125987;27;20093;-73
2022/01/04 03:43:45;;;;;;;26.70;16.20;;;4.00;99.90;;;;;;5127902;27;20110;-73
2022/01/04 03:46:11;;;;;;;25.85;16.02;;;4.00;99.90;;;;;;5130977;27;20122;-73
2022/01/04 03:48:37;;;;;;;23.52;15.27;;;4.20;99.90;;;;;;5131506;27;20084;-73
2022/01/04 03:51:04;;;;;;;28.13;15.82;;;4.10;99.90;;;;;;5132675;27;20027;-73
2022/01/04 03:53:31;;;;;;;27.15;14.85;;;4.10;99.90;;;;;;5131206;27;20039;-73
2022/01/04 03:55:56;;;;;;;22.98;15.13;;;4.00;99.90;;;;;;5123534;27;20035;-73
2022/01/04 03:58:23;;;;;;;26.48;14.68;;;3.90;99.90;;;;;;5132455;27;20035;-73
2022/01/04 04:00:49;;;;;;;23.40;14.18;;;4.00;99.90;;;;;;5131439;27;20035;-73
2022/01/04 04:03:16;;;;;;;26.83;14.90;;;4.10;99.90;;;;;;5120561;27;20051;-73
2022/01/04 04:05:42;;;;;;;24.73;15.13;;;4.10;99.90;;;;;;5122462;27;20050;-73
2022/01/04 04:08:08;;;;;;;26.40;15.05;;;4.10;99.90;;;;;;5124306;27;20097;-73
2022/01/04 04:10:33;;;;;;;29.75;16.55;;;4.00;99.90;;;;;;5124602;27;20098;-73
2022/01/04 04:12:59;;;;;;;23.17;15.20;;;4.00;99.90;;;;;;5123603;27;20039;-74
2022/01/04 04:15:25;;;;;;;26.08;15.88;;;4.00;99.90;;;;;;5121005;27;20030;-74
2022/01/04 04:17:51;;;;;;;26.65;14.80;;;4.00;99.90;;;;;;5123839;27;20122;-73
2022/01/04 04:20:17;;;;;;;28.17;15.50;;;4.10;99.90;;;;;;5123675;27;20435;-73
2022/01/04 04:22:43;;;;;;;27.75;16.15;;;4.10;99.90;;;;;;5125783;27;20019;-73
2022/01/04 04:25:09;;;;;;;25.70;14.60;;;4.00;99.90;;;;;;5127290;27;20027;-73
2022/01/04 04:27:35;;;;;;;25.42;14.70;;;4.00;99.90;;;;;;5127457;27;20046;-73
2022/01/04 04:30:00;;;;;;;26.40;16.10;;;4.00;99.90;;;;;;5124581;27;20035;-73
2022/01/04 04:32:26;;;;;;;25.33;16.10;;;3.90;99.90;;;;;;5127076;27;20615;-73
2022/01/04 04:34:52;;;;;;;26.17;16.80;;;3.90;99.90;;;;;;5126284;27;20031;-73
2022/01/04 04:37:18;;;;;;;25.50;14.70;;;3.80;99.90;;;;;;5125441;27;20602;-73
2022/01/04 04:39:44;;;;;;;31.75;14.75;;;3.90;99.90;;;;;;5125749;27;20106;-73
2022/01/04 04:42:09;;;;;;;25.15;14.48;;;3.80;99.90;;;;;;5117654;27;20031;-73
2022/01/04 04:44:36;;;;;;;21.85;14.07;;;3.80;99.90;;;;;;5127113;27;20027;-73
2022/01/04 04:47:01;;;;;;;24.58;14.85;;;4.00;99.90;;;;;;5125931;27;20027;-73
2022/01/04 04:49:27;;;;;;;27.00;15.82;;;4.00;99.90;;;;;;5125430;27;20047;-73
2022/01/04 04:51:56;;;;;;;22.30;13.82;;;3.90;99.90;;;;;;5127199;27;20566;-73
2022/01/04 04:54:23;;;;;;;27.80;16.20;;;3.80;99.90;;;;;;5119427;27;20073;-73
2022/01/04 04:56:48;;;;;;;27.00;16.95;;;3.90;99.90;;;;;;5127246;27;20023;-73
2022/01/04 04:59:14;;;;;;;29.08;17.85;;;3.90;99.90;;;;;;5123321;27;20030;-73
2022/01/04 05:01:40;;;;;;;26.88;17.13;;;3.90;99.90;;;;;;5124329;27;20056;-73
2022/01/04 05:04:05;;;;;;;23.70;14.02;;;3.90;99.90;;;;;;5118785;27;20388;-73
2022/01/04 05:06:31;;;;;;;28.98;15.48;;;3.90;99.90;;;;;;5124295;27;20035;-73
2022/01/04 05:08:57;;;;;;;22.80;15.05;;;3.90;99.90;;;;;;5122967;27;20095;-73
2022/01/04 05:11:22;;;;;;;24.42;15.98;;;3.90;99.90;;;;;;5124245;27;20055;-73
2022/01/04 05:13:48;;;;;;;26.20;15.13;;;3.80;99.90;;;;;;5121788;27;20532;-75
2022/01/04 05:16:14;;;;;;;23.88;14.65;;;3.90;99.90;;;;;;5123560;27;20050;-75
2022/01/04 05:18:39;;;;;;;24.60;15.07;;;3.90;99.90;;;;;;5123240;27;20118;-75
2022/01/04 05:21:05;;;;;;;23.95;14.00;;;3.90;99.90;;;;;;5115120;27;20521;-75
2022/01/04 05:23:32;;;;;;;25.85;15.48;;;3.80;99.90;;;;;;5123377;27;20035;-75
2022/01/04 05:25:57;;;;;;;22.30;14.18;;;3.80;99.90;;;;;;5122915;27;20109;-75
2022/01/04 05:28:23;;;;;;;22.20;12.15;;;3.70;99.90;;;;;;5118631;28;20126;-75
2022/01/04 05:30:49;;;;;;;16.92;10.45;;;3.60;99.90;;;;;;5123633;28;20035;-75
2022/01/04 05:33:15;;;;;;;23.98;12.93;;;3.70;99.90;;;;;;5123202;28;20031;-75
2022/01/04 05:35:41;;;;;;;22.40;13.65;;;3.70;99.90;;;;;;5122160;28;20034;-76
2022/01/04 05:38:06;;;;;;;21.95;14.23;;;3.60;99.90;;;;;;5117637;28;20023;-75
2022/01/04 05:40:32;;;;;;;23.02;14.88;;;3.70;99.90;;;;;;5123045;28;20501;-75
2022/01/04 05:42:58;;;;;;;24.00;14.70;;;3.70;99.90;;;;;;5119041;27;20106;-75
2022/01/04 05:45:24;;;;;;;21.20;12.50;;;3.60;99.90;;;;;;5122573;28;20071;-75
2022/01/04 05:47:50;;;;;;;23.10;12.70;;;3.60;99.90;;;;;;5122411;28;20047;-75
2022/01/04 05:50:15;;;;;;;21.45;12.15;;;3.60;99.90;;;;;;5123095;28;20046;-75
2022/01/04 05:52:41;;;;;;;26.42;13.88;;;3.70;99.90;;;;;;5122693;28;20505;-75
2022/01/04 05:55:08;;;;;;;21.35;12.50;;;3.70;99.90;;;;;;5119854;28;20114;-75
2022/01/04 05:57:34;;;;;;;24.45;13.48;;;3.70;99.90;;;;;;5122362;27;20052;-75
2022/01/04 06:00:00;;;;;;;23.98;13.93;;;3.80;99.90;;;;;;5123646;28;20057;-75
2022/01/04 06:02:25;;;;;;;25.58;14.40;;;3.80;99.90;;;;;;5121472;28;20047;-75
2022/01/04 06:04:52;;;;;;;21.48;13.30;;;3.80;99.90;;;;;;5122710;28;20473;-75
2022/01/04 06:07:18;;;;;;;22.88;14.02;;;3.90;99.90;;;;;;5122595;28;20518;-74
2022/01/04 06:09:47;;;;;;;19.00;12.02;;;3.80;99.90;;;;;;5119153;28;20040;-75
2022/01/04 06:14:52;;;;;;;23.63;14.98;;;3.90;99.90;;;;;;5121932;28;20114;-74
2022/01/04 06:17:19;;;;;;;25.08;14.10;;;3.90;99.90;;;;;;5122664;27;20023;-75
2022/01/04 06:19:45;;;;;;;21.00;12.80;;;3.80;99.90;;;;;;5121452;28;20039;-75
2022/01/04 06:22:11;;;;;;;21.45;12.60;;;3.90;99.90;;;;;;5121185;28;20126;-75
2022/01/04 06:24:37;;;;;;;20.13;12.00;;;4.00;99.90;;;;;;5123150;27;20350;-74
2022/01/04 06:27:10;;;;;;;19.92;12.70;;;3.90;99.90;;;;;;5126480;27;20023;-74
2022/01/04 06:29:39;;;;;;;21.52;12.38;;;3.80;99.90;;;;;;5124158;27;20045;-75
2022/01/04 06:32:06;;;;;;;19.88;12.73;;;3.50;99.90;;;;;;5119630;27;20456;-74
2022/01/04 06:34:32;;;;;;;20.58;13.02;;;3.40;99.90;;;;;;5125816;27;20042;-74
2022/01/04 06:36:58;;;;;;;22.73;13.48;;;3.50;99.90;;;;;;5126221;27;20061;-74
2022/01/04 06:39:24;;;;;;;24.65;14.25;;;3.60;99.90;;;;;;5124285;27;20027;-74
2022/01/04 06:41:50;;;;;;;24.10;12.75;;;3.60;99.90;;;;;;5121045;27;20114;-74
2022/01/04 06:44:15;;;;;;;21.85;12.02;;;3.60;99.90;;;;;;5124428;27;20054;-75
2022/01/04 06:46:45;;;;;;;21.88;12.45;;;3.70;99.90;;;;;;5118884;27;20019;-74
2022/01/04 06:49:12;;;;;;;20.48;11.60;;;3.80;99.90;;;;;;5124862;27;20035;-75
2022/01/04 06:51:39;;;;;;;22.15;12.43;;;3.80;99.90;;;;;;5124627;27;20037;-75
2022/01/04 06:54:06;;;;;;;24.55;12.65;;;3.90;99.90;;;;;;5126477;27;20381;-74
2022/01/04 06:56:31;;;;;;;22.98;12.25;;;3.90;99.90;;;;;;5126067;27;20049;-74
2022/01/04 06:58:57;;;;;;;20.20;12.23;;;3.90;99.90;;;;;;5125898;27;20377;-75
2022/01/04 07:01:23;;;;;;;20.27;11.95;;;3.90;99.90;;;;;;5124200;27;20038;-74
2022/01/04 07:03:48;;;;;;;21.67;11.80;;;4.00;99.90;;;;;;5125944;27;20339;-74
2022/01/04 07:06:14;;;;;;;22.90;12.18;;;4.00;99.90;;;;;;5124162;27;20059;-75
2022/01/04 07:08:40;;;;;;;19.00;12.13;;;4.00;99.90;;;;;;5125213;27;20142;-74
2022/01/04 07:11:06;;;;;;;23.05;13.23;;;4.10;99.90;;;;;;5120107;27;20036;-75
2022/01/04 07:13:31;;;;;;;21.27;11.85;;;4.00;99.90;;;;;;5126033;27;20405;-75
2022/01/04 07:15:57;;;;;;;22.42;13.90;;;3.90;99.90;;;;;;5127511;27;20507;-75
2022/01/04 07:18:23;;;;;;;28.30;14.65;;;3.90;99.90;;;;;;5126761;27;20606;-77
2022/01/04 07:20:49;;;;;;;20.88;13.57;;;3.90;99.90;;;;;;5130843;27;20035;-76
2022/01/04 07:23:14;;;;;;;23.05;13.70;;;3.90;99.90;;;;;;5125634;27;20027;-76
2022/01/04 07:25:40;;;;;;;19.42;12.63;;;4.00;99.90;;;;;;5123711;27;20079;-75
2022/01/04 07:28:06;;;;;;;18.55;11.35;;;4.00;99.90;;;;;;5122988;27;20071;-76
2022/01/04 07:30:32;;;;;;;20.25;11.35;;;4.10;99.90;;;;;;5128676;27;20694;-76
2022/01/04 07:32:58;;;;;;;19.20;12.25;;;4.00;99.90;;;;;;5124988;27;20065;-76
2022/01/04 07:35:23;;;;;;;22.08;12.65;;;3.80;99.90;;;;;;5124145;27;20027;-76
2022/01/04 07:37:50;;;;;;;22.50;12.15;;;3.80;99.90;;;;;;5124347;27;20034;-76
2022/01/04 07:40:15;;;;;;;19.88;11.43;;;3.90;99.90;;;;;;5125144;27;20416;-76
2022/01/04 07:42:41;;;;;;;21.52;12.27;;;4.00;99.90;;;;;;5125411;27;20035;-76
2022/01/04 07:45:07;;;;;;;21.67;13.15;;;4.10;99.90;;;;;;5121277;27;20027;-76
2022/01/04 07:47:33;;;;;;;19.50;12.35;;;4.00;99.90;;;;;;5125115;27;20497;-76
2022/01/04 07:49:59;;;;;;;22.75;13.23;;;3.90;99.90;;;;;;5123957;27;20031;-76
2022/01/04 07:52:25;;;;;;;25.55;12.88;;;3.70;99.90;;;;;;5122602;27;20027;-76
2022/01/04 07:54:51;;;;;;;22.15;13.25;;;3.80;99.90;;;;;;5123983;27;20039;-76
2022/01/04 07:57:17;;;;;;;20.45;12.98;;;3.80;99.90;;;;;;5125297;27;20069;-76
2022/01/04 07:59:43;;;;;;;24.20;13.65;;;3.80;99.90;;;;;;5122295;27;20067;-75
2022/01/04 08:02:08;;;;;;;24.45;13.18;;;3.90;99.90;;;;;;5120804;27;20031;-76
2022/01/04 08:04:34;;;;;;;24.88;12.45;;;3.80;99.90;;;;;;5127469;27;20031;-76
2022/01/04 08:07:00;;;;;;;21.98;12.40;;;3.90;99.90;;;;;;5124953;27;20035;-76
2022/01/04 08:09:26;;;;;;;17.92;11.77;;;3.90;99.90;;;;;;5122381;27;20078;-76
2022/01/04 08:11:52;;;;;;;22.08;12.90;;;3.80;99.90;;;;;;5118055;27;20031;-76
2022/01/04 08:14:17;;;;;;;23.95;13.27;;;3.80;99.90;;;;;;5124734;27;20076;-76
2022/01/04 08:16:44;;;;;;;22.30;13.32;;;3.70;99.90;;;;;;5124178;27;20038;-76
2022/01/04 08:19:10;;;;;;;21.92;13.55;;;3.90;99.90;;;;;;5119108;27;20464;-76
2022/01/04 08:21:37;;;;;;;26.25;14.05;;;3.90;99.90;;;;;;5124770;27;20050;-76
2022/01/04 08:24:02;;;;;;;24.48;14.88;;;4.00;99.90;;;;;;5124098;27;20019;-76
2022/01/04 08:26:31;;;;;;;21.60;14.13;;;4.10;99.90;;;;;;5121040;27;20019;-76
2022/01/04 08:28:57;;;;;;;21.70;14.15;;;4.10;99.90;;;;;;5120185;27;21563;-77
2022/01/04 08:31:23;;;;;;;24.25;14.82;;;4.00;99.90;;;;;;5123406;27;20030;-76
2022/01/04 08:33:50;;;;;;;22.52;13.10;;;4.00;99.90;;;;;;5123536;27;20031;-76
2022/01/04 08:36:15;;;;;;;21.65;13.23;;;4.00;99.90;;;;;;5122440;27;20038;-75
2022/01/04 08:38:43;;;;;;;18.77;12.23;;;4.10;99.90;;;;;;5123656;27;20027;-76
2022/01/04 08:41:09;;;;;;;21.00;11.45;;;4.10;99.90;;;;;;5121880;27;20110;-76
2022/01/04 08:43:35;;;;;;;26.15;14.73;;;4.10;99.90;;;;;;5118392;27;20102;-75
2022/01/04 08:46:00;;;;;;;29.05;16.63;;;4.20;99.90;;;;;;5119096;27;20110;-74
2022/01/04 08:48:26;;;;;;;24.60;14.43;;;4.20;99.90;;;;;;5102297;27;20031;-75
2022/01/04 08:50:52;;;;;;;23.38;13.52;;;4.10;99.90;;;;;;5120503;27;20039;-74
2022/01/04 08:53:18;;;;;;;22.33;13.10;;;4.10;99.90;;;;;;5120025;27;20019;-74
2022/01/04 08:55:45;;;;;;;28.80;15.82;;;4.10;99.90;;;;;;5116583;27;20023;-74
2022/01/04 08:58:11;;;;;;;28.55;16.73;;;4.30;99.90;;;;;;5122984;27;20027;-74
2022/01/04 09:00:36;;;;;;;28.13;16.42;;;4.30;99.90;;;;;;5116454;27;20050;-73
2022/01/04 09:03:03;;;;;;;29.23;18.05;;;4.40;99.90;;;;;;5104772;27;20489;-74
2022/01/04 09:05:30;;;;;;;34.58;21.70;;;4.40;99.90;;;;;;5122623;27;20362;-74
2022/01/04 09:07:55;;;;;;;26.25;15.13;;;4.40;99.90;;;;;;5113052;27;20035;-74
2022/01/04 09:10:21;;;;;;;24.58;15.70;;;4.40;99.90;;;;;;5122663;27;20042;-74
2022/01/04 09:13:05;;;;;;;27.88;16.00;;;4.40;99.90;;;;;;5125626;27;20142;-74
2022/01/04 09:15:56;;;;;;;27.55;15.10;;;4.50;99.90;;;;;;5123194;27;20030;-74
2022/01/04 09:21:05;;;;;;;;;;;4.50;99.90;;;;;;5117510;27;20046;-74
2022/01/04 09:23:31;;;;;;;21.33;12.65;;;4.50;99.90;;;;;;5097293;27;20289;-74
2022/01/04 09:25:57;;;;;;;25.95;12.45;;;4.40;99.90;;;;;;5119194;27;20059;-74
2022/01/04 09:28:24;;;;;;;25.83;14.20;;;4.50;99.90;;;;;;5117648;27;20042;-74
2022/01/04 09:30:51;;;;;;;21.83;13.73;;;4.40;99.90;;;;;;5119187;27;20028;-74
2022/01/04 09:33:17;;;;;;;22.90;15.00;;;4.50;99.90;;;;;;5123001;28;20041;-74
2022/01/04 09:35:44;;;;;;;21.30;13.10;;;4.60;99.90;;;;;;5119077;27;20027;-74
2022/01/04 09:38:10;;;;;;;42.90;22.65;;;4.70;99.90;;;;;;5119684;27;20098;-74
2022/01/04 09:40:37;;;;;;;25.35;15.60;;;4.70;99.90;;;;;;5115283;27;20031;-74
2022/01/04 09:43:05;;;;;;;24.30;13.25;;;4.50;99.90;;;;;;5121872;28;20043;-74
2022/01/04 09:45:31;;;;;;;25.40;14.23;;;4.40;99.90;;;;;;5120618;27;20035;-74
2022/01/04 09:47:57;;;;;;;20.30;12.15;;;4.40;99.90;;;;;;5121179;27;20426;-74
2022/01/04 09:50:23;;;;;;;20.77;13.25;;;4.40;99.90;;;;;;5122428;28;20042;-75
2022/01/04 09:52:49;;;;;;;23.60;12.95;;;4.40;99.90;;;;;;5115105;27;20042;-74
2022/01/04 09:55:17;;;;;;;23.33;14.38;;;4.50;99.90;;;;;;5119843;27;20083;-74
2022/01/04 09:57:48;;;;;;;23.27;14.73;;;4.40;99.90;;;;;;5117240;27;20766;-74
2022/01/04 10:00:17;;;;;;;27.05;14.32;;;4.50;99.90;;;;;;5119789;27;20038;-74
2022/01/04 10:02:45;;;;;;;23.90;13.20;;;4.60;99.90;;;;;;5120773;27;20043;-74
2022/01/04 10:05:22;;;;;;;21.70;14.48;;;4.50;99.90;;;;;;5127524;27;20031;-74
2022/01/04 10:07:58;;;;;;;28.17;16.85;;;4.50;99.90;;;;;;5120117;27;20392;-74
2022/01/04 10:10:24;;;;;;;29.23;17.10;;;4.70;99.90;;;;;;5124198;27;20035;-74
2022/01/04 10:13:03;;;;;;;32.28;17.50;;;4.70;99.90;;;;;;5102168;27;20047;-74
2022/01/04 10:15:28;;;;;;;27.27;15.52;;;4.70;99.90;;;;;;5122392;27;20084;-74
2022/01/04 10:17:56;;;;;;;36.03;19.88;;;4.80;99.90;;;;;;5125766;27;20039;-74
2022/01/04 10:20:22;;;;;;;30.60;17.98;;;4.80;99.90;;;;;;5121079;27;20030;-74
2022/01/04 10:22:50;;;;;;;25.33;14.52;;;4.80;99.90;;;;;;5122677;27;20027;-74
2022/01/04 10:25:19;;;;;;;28.55;16.80;;;4.70;99.90;;;;;;5123698;27;20439;-74
2022/01/04 10:27:50;;;;;;;33.75;18.45;;;4.80;99.90;;;;;;5115409;27;20296;-74
2022/01/04 10:30:30;;;;;;;29.75;17.38;;;4.70;99.90;;;;;;5114622;27;20038;-74
2022/01/04 10:33:04;;;;;;;25.70;16.10;;;4.70;99.90;;;;;;5103582;27;20129;-74
2022/01/04 10:35:44;;;;;;;32.05;16.52;;;4.70;99.90;;;;;;5105153;27;20115;-74
2022/01/04 10:38:26;;;;;;;25.52;16.05;;;4.80;99.90;;;;;;5099152;27;20027;-74
2022/01/04 10:41:02;;;;;;;26.50;15.57;;;4.80;99.90;;;;;;5096145;27;20138;-74
2022/01/04 10:44:07;;;;;;;27.60;17.77;;;4.80;99.90;;;;;;5100247;27;20019;-74
2022/01/04 10:46:43;;;;;;;27.30;15.97;;;4.80;99.90;;;;;;5096558;27;20047;-74
2022/01/04 10:49:18;;;;;;;21.40;14.27;;;4.90;99.90;;;;;;5098518;27;20058;-74
2022/01/04 10:51:45;;;;;;;25.88;14.85;;;4.80;99.90;;;;;;5103656;27;20033;-74
2022/01/04 10:54:18;;;;;;;25.30;14.32;;;4.90;99.90;;;;;;5099229;27;20032;-74
2022/01/04 10:56:44;;;;;;;25.67;14.45;;;4.80;99.90;;;;;;5098002;27;20537;-74
2022/01/04 10:59:11;;;;;;;26.70;15.27;;;4.80;99.90;;;;;;5098227;27;20074;-74
2022/01/04 11:01:41;;;;;;;23.63;14.88;;;4.80;99.90;;;;;;5100588;27;20122;-74
2022/01/04 11:04:13;;;;;;;27.88;14.68;;;4.90;99.90;;;;;;5104040;27;20694;-74
2022/01/04 11:06:39;;;;;;;23.27;13.25;;;4.80;99.90;;;;;;5097651;27;20461;-74
2022/01/04 11:09:06;;;;;;;25.15;14.55;;;4.90;99.90;;;;;;5095956;27;20043;-73
2022/01/04 11:11:32;;;;;;;21.73;14.55;;;4.90;99.90;;;;;;5096943;27;20504;-74
2022/01/04 11:13:59;;;;;;;23.38;13.20;;;4.90;99.90;;;;;;5100133;27;20126;-74
2022/01/04 11:16:29;;;;;;;21.58;14.40;;;4.90;99.90;;;;;;5103864;27;20043;-74
2022/01/04 11:18:57;;;;;;;24.02;15.13;;;4.80;99.90;;;;;;5097121;27;21272;-74
2022/01/04 11:21:24;;;;;;;26.25;15.68;;;4.90;99.90;;;;;;5103490;27;20171;-74
2022/01/04 11:23:52;;;;;;;26.75;13.82;;;5.00;99.90;;;;;;5096242;27;20657;-74
2022/01/04 11:26:19;;;;;;;24.70;14.05;;;4.90;99.90;;;;;;5103752;27;20060;-74
2022/01/04 11:28:46;;;;;;;22.00;14.20;;;5.00;99.90;;;;;;5119255;27;20168;-73
2022/01/04 11:31:18;;;;;;;22.23;14.25;;;5.00;99.90;;;;;;5124090;27;20052;-74
2022/01/04 11:34:10;;;;;;;27.52;14.75;;;5.00;99.90;;;;;;5124527;27;20022;-74
2022/01/04 11:36:41;;;;;;;23.63;14.10;;;5.00;99.90;;;;;;5110463;27;20041;-74
2022/01/04 11:39:38;;;;;;;26.33;15.70;;;5.00;99.90;;;;;;5097657;27;20051;-74
2022/01/04 11:42:31;;;;;;;22.73;12.88;;;5.00;99.90;;;;;;5093483;27;20076;-74
2022/01/04 11:44:59;;;;;;;22.15;13.73;;;5.10;99.90;;;;;;5100268;27;20070;-74
2022/01/04 11:47:28;;;;;;;26.95;14.48;;;5.10;99.90;;;;;;5105841;27;20031;-73
2022/01/04 11:50:23;;;;;;;25.83;15.25;;;5.20;99.90;;;;;;5097709;27;20047;-74
2022/01/04 11:52:58;;;;;;;30.00;16.90;;;5.20;99.90;;;;;;5100690;27;20556;-75
2022/01/04 11:55:31;;;;;;;22.73;13.90;;;5.30;99.90;;;;;;5100430;27;20080;-76
2022/01/04 11:58:07;;;;;;;23.48;13.95;;;5.20;99.90;;;;;;5109760;27;20027;-75
2022/01/04 12:00:43;;;;;;;25.90;14.77;;;5.30;99.90;;;;;;5097676;27;20026;-76
2022/01/04 12:03:14;;;;;;;24.77;15.23;;;5.30;99.90;;;;;;5097145;27;20035;-74
2022/01/04 12:06:02;;;;;;;29.05;16.23;;;5.30;99.90;;;;;;5097672;27;20458;-76
2022/01/04 12:08:41;;;;;;;31.02;14.63;;;5.20;99.90;;;;;;5100790;27;20027;-73
2022/01/04 12:11:22;;;;;;;22.55;13.60;;;5.30;99.90;;;;;;5096540;27;20634;-75
2022/01/04 12:13:58;;;;;;;42.55;16.67;;;5.40;99.90;;;;;;5097176;27;20435;-73
2022/01/04 12:16:43;;;;;;;29.98;15.25;;;5.50;99.90;;;;;;5096464;27;20093;-74
2022/01/04 12:19:11;;;;;;;23.73;15.13;;;5.70;99.90;;;;;;5102240;27;20031;-75
2022/01/04 12:21:45;;;;;;;25.90;15.27;;;5.90;99.90;;;;;;5078098;27;20441;-75
2022/01/04 12:24:14;;;;;;;29.58;15.15;;;5.80;99.90;;;;;;5096815;27;20027;-76
2022/01/04 12:26:40;;;;;;;26.45;16.15;;;5.90;99.90;;;;;;5098135;27;20031;-78
2022/01/04 12:29:09;;;;;;;27.92;15.77;;;6.00;99.90;;;;;;5104475;27;20039;-75
2022/01/04 12:31:56;;;;;;;24.10;14.65;;;6.00;99.90;;;;;;5099327;27;20119;-73
2022/01/04 12:34:36;;;;;;;26.98;16.50;;;5.90;99.90;;;;;;5099997;27;20023;-73
2022/01/04 12:37:04;;;;;;;24.23;14.82;;;5.80;99.90;;;;;;5100618;27;20223;-73
2022/01/04 12:39:42;;;;;;;26.95;14.98;;;5.80;99.90;;;;;;5099926;27;20662;-73
2022/01/04 12:42:12;;;;;;;23.80;14.88;;;5.80;99.90;;;;;;5108953;27;20035;-73
2022/01/04 12:44:38;;;;;;;24.25;15.48;;;5.80;99.90;;;;;;5104692;27;20035;-73
2022/01/04 12:47:07;;;;;;;23.67;14.32;;;5.90;99.90;;;;;;5099502;27;20442;-73
2022/01/04 12:49:33;;;;;;;27.25;14.70;;;5.80;99.90;;;;;;5099957;27;20092;-72